createdAt,value
2022-12-15T00:02:17.984Z,74.97
2022-12-15T00:05:03.096Z,74.15
2022-12-15T00:07:48.562Z,75.16
2022-12-15T00:10:34.224Z,74.31
2022-12-15T00:13:21.081Z,74.48
2022-12-15T00:16:10.795Z,74.94
2022-12-15T00:18:55.990Z,74.52
2022-12-15T00:21:43.830Z,73.42
2022-12-15T00:24:28.698Z,73.43
2022-12-15T00:27:13.468Z,73.26
2022-12-15T00:30:00.256Z,74.99
2022-12-15T00:32:45.467Z,74.39
2022-12-15T00:35:33.033Z,74.55
2022-12-15T00:38:25.327Z,73.83
2022-12-15T00:40:59.524Z,74.50
2022-12-15T00:43:28.017Z,74.22
2022-12-15T00:46:18.020Z,73.62
2022-12-15T00:48:48.441Z,74.08
2022-12-15T00:51:15.831Z,73.35
2022-12-15T00:54:01.932Z,72.73
2022-12-15T00:56:47.625Z,73.84
2022-12-15T00:59:33.413Z,74.89
2022-12-15T01:02:21.057Z,75.30
2022-12-15T01:05:07.039Z,74.47
2022-12-15T01:07:58.205Z,74.24
2022-12-15T01:10:43.023Z,73.87
2022-12-15T01:13:32.297Z,74.40
2022-12-15T01:16:17.745Z,78.06
2022-12-15T01:19:04.311Z,76.26
2022-12-15T01:21:33.143Z,77.46
2022-12-15T01:24:00.549Z,79.95
2022-12-15T01:26:27.989Z,79.67
2022-12-15T01:28:55.374Z,77.28
2022-12-15T01:31:22.845Z,76.60
2022-12-15T01:33:54.435Z,76.44
2022-12-15T01:36:21.834Z,76.57
2022-12-15T01:38:53.835Z,76.89
2022-12-15T01:41:21.001Z,76.28
2022-12-15T01:43:49.794Z,75.90
2022-12-15T01:46:20.050Z,77.02
2022-12-15T01:48:49.964Z,77.43
2022-12-15T01:51:27.879Z,77.59
2022-12-15T01:54:03.776Z,77.97
2022-12-15T01:56:37.628Z,76.79
2022-12-15T01:59:08.384Z,76.08
2022-12-15T02:01:36.232Z,75.67
2022-12-15T02:04:03.991Z,76.29
2022-12-15T02:06:32.752Z,75.98
2022-12-15T02:09:02.024Z,78.11
2022-12-15T02:11:58.422Z,78.01
2022-12-15T02:14:38.562Z,76.83
2022-12-15T02:17:15.899Z,75.20
2022-12-15T02:20:16.705Z,75.33
2022-12-15T02:23:11.066Z,77.03
2022-12-15T02:25:59.581Z,76.05
2022-12-15T02:28:42.917Z,75.21
2022-12-15T02:31:34.233Z,74.57
2022-12-15T02:34:16.302Z,74.84
2022-12-15T02:36:47.855Z,75.78
2022-12-15T02:39:16.296Z,75.86
2022-12-15T02:41:46.096Z,74.89
2022-12-15T02:44:19.102Z,74.94
2022-12-15T02:47:07.381Z,74.75
2022-12-15T02:49:44.386Z,75.31
2022-12-15T02:52:24.027Z,75.80
2022-12-15T02:55:05.659Z,75.89
2022-12-15T02:57:43.449Z,75.60
2022-12-15T03:00:12.820Z,77.19
2022-12-15T03:02:45.698Z,76.70
2022-12-15T03:05:14.067Z,75.60
2022-12-15T03:07:42.753Z,76.04
2022-12-15T03:10:12.959Z,75.18
2022-12-15T03:12:40.435Z,75.24
2022-12-15T03:15:08.649Z,75.14
2022-12-15T03:17:36.127Z,75.87
2022-12-15T03:20:05.668Z,76.13
2022-12-15T03:22:33.089Z,75.48
2022-12-15T03:25:00.495Z,76.12
2022-12-15T03:27:28.136Z,75.89
2022-12-15T03:29:55.515Z,76.55
2022-12-15T03:32:22.915Z,77.44
2022-12-15T03:34:50.444Z,76.99
2022-12-15T03:37:19.150Z,76.39
2022-12-15T03:39:46.557Z,76.76
2022-12-15T03:42:13.956Z,76.94
2022-12-15T03:44:41.360Z,78.07
2022-12-15T03:47:08.767Z,78.12
2022-12-15T03:49:36.193Z,77.72
2022-12-15T03:52:03.747Z,77.18
2022-12-15T03:54:32.570Z,77.62
2022-12-15T03:57:00.115Z,77.46
2022-12-15T03:59:27.526Z,75.30
2022-12-15T04:01:55.017Z,77.54
2022-12-15T04:04:22.468Z,77.10
2022-12-15T04:06:49.886Z,76.58
2022-12-15T04:09:17.355Z,79.27
2022-12-15T04:11:46.130Z,77.26
2022-12-15T04:14:13.785Z,77.03
2022-12-15T04:16:41.292Z,76.25
2022-12-15T04:19:26.184Z,76.84
2022-12-15T04:21:53.622Z,77.68
2022-12-15T04:24:38.570Z,77.68
2022-12-15T04:27:25.276Z,77.23
2022-12-15T04:30:10.140Z,77.37
2022-12-15T04:32:54.824Z,77.43
2022-12-15T04:35:40.044Z,77.75
2022-12-15T04:38:24.828Z,79.17
2022-12-15T04:41:10.112Z,78.84
2022-12-15T04:43:56.767Z,78.83
2022-12-15T04:46:41.702Z,78.55
2022-12-15T04:49:26.860Z,77.89
2022-12-15T04:52:11.738Z,77.65
2022-12-15T04:54:56.542Z,77.18
2022-12-15T04:57:41.425Z,76.78
2022-12-15T05:00:30.112Z,77.35
2022-12-15T05:03:18.332Z,76.95
2022-12-15T05:06:03.656Z,78.38
2022-12-15T05:08:50.281Z,77.47
2022-12-15T05:11:35.644Z,77.55
2022-12-15T05:14:20.540Z,77.29
2022-12-15T05:17:07.124Z,78.29
2022-12-15T05:19:51.941Z,78.91
2022-12-15T05:22:36.774Z,79.39
2022-12-15T05:25:22.055Z,77.57
2022-12-15T05:28:06.810Z,78.14
2022-12-15T05:30:51.530Z,77.82
2022-12-15T05:33:20.340Z,77.40
2022-12-15T05:35:47.749Z,77.75
2022-12-15T05:38:15.174Z,78.71
2022-12-15T05:40:43.566Z,77.55
2022-12-15T05:43:11.056Z,77.30
2022-12-15T05:45:38.447Z,76.31
2022-12-15T05:48:06.982Z,76.13
2022-12-15T05:50:35.737Z,75.99
2022-12-15T05:53:03.111Z,77.03
2022-12-15T05:55:30.511Z,76.32
2022-12-15T05:57:57.909Z,75.32
2022-12-15T06:00:25.925Z,75.78
2022-12-15T06:02:53.359Z,79.42
2022-12-15T06:05:20.765Z,77.33
2022-12-15T06:07:49.482Z,77.25
2022-12-15T06:10:17.082Z,76.87
2022-12-15T06:12:44.521Z,77.61
2022-12-15T06:15:12.141Z,77.28
2022-12-15T06:17:39.605Z,75.92
2022-12-15T06:20:08.264Z,75.84
2022-12-15T06:22:35.663Z,77.46
2022-12-15T06:25:04.859Z,76.18
2022-12-15T06:27:32.234Z,78.93
2022-12-15T06:29:59.649Z,79.51
2022-12-15T06:32:27.068Z,78.70
2022-12-15T06:34:54.519Z,78.22
2022-12-15T06:37:21.918Z,75.96
2022-12-15T06:39:49.410Z,75.70
2022-12-15T06:42:18.196Z,79.94
2022-12-15T06:44:45.592Z,80.94
2022-12-15T06:47:13.244Z,77.56
2022-12-15T06:49:40.689Z,77.02
2022-12-15T06:52:09.152Z,76.95
2022-12-15T06:54:36.803Z,80.00
2022-12-15T06:57:04.505Z,78.33
2022-12-15T06:59:33.583Z,76.78
2022-12-15T07:02:01.563Z,76.79
2022-12-15T07:04:30.415Z,77.79
2022-12-15T07:06:58.073Z,75.80
2022-12-15T07:09:27.456Z,75.10
2022-12-15T07:11:55.042Z,74.30
2022-12-15T07:14:23.851Z,75.07
2022-12-15T07:16:52.880Z,83.21
2022-12-15T07:19:20.448Z,79.87
2022-12-15T07:21:47.992Z,77.13
2022-12-15T07:24:15.655Z,76.63
2022-12-15T07:26:43.337Z,75.06
2022-12-15T07:29:11.863Z,76.72
2022-12-15T07:31:39.854Z,75.64
2022-12-15T07:34:08.932Z,73.72
2022-12-15T07:36:36.473Z,73.49
2022-12-15T07:39:05.741Z,73.83
2022-12-15T07:41:33.664Z,73.22
2022-12-15T07:44:02.360Z,73.54
2022-12-15T07:46:31.267Z,74.36
2022-12-15T07:48:59.061Z,73.54
2022-12-15T07:51:28.174Z,72.92
2022-12-15T07:53:58.258Z,72.74
2022-12-15T07:56:25.879Z,73.79
2022-12-15T07:58:54.089Z,73.10
2022-12-15T08:01:22.309Z,73.07
2022-12-15T08:03:50.277Z,73.49
2022-12-15T08:06:18.128Z,73.66
2022-12-15T08:08:50.265Z,74.44
2022-12-15T08:11:20.471Z,74.31
2022-12-15T08:14:05.696Z,73.99
2022-12-15T08:16:37.453Z,73.11
2022-12-15T08:19:06.542Z,72.53
2022-12-15T08:21:35.092Z,72.41
2022-12-15T08:24:04.301Z,72.37
2022-12-15T08:26:32.207Z,72.65
2022-12-15T08:29:31.825Z,71.55
2022-12-15T08:31:51.875Z,73.28
2022-12-15T08:34:19.741Z,72.23
2022-12-15T08:36:47.680Z,71.06
2022-12-15T08:39:16.818Z,71.54
2022-12-15T08:41:44.556Z,71.43
2022-12-15T08:44:12.211Z,71.35
2022-12-15T08:46:39.979Z,70.91
2022-12-15T08:49:08.721Z,70.51
2022-12-15T08:51:36.201Z,70.88
2022-12-15T08:54:04.030Z,71.06
2022-12-15T08:56:33.100Z,70.45
2022-12-15T08:59:02.435Z,71.04
2022-12-15T09:01:32.505Z,71.13
2022-12-15T09:04:01.418Z,70.85
2022-12-15T09:06:31.972Z,70.95
2022-12-15T09:09:01.755Z,70.76
2022-12-15T09:11:30.852Z,70.36
2022-12-15T09:14:00.018Z,70.27
2022-12-15T09:16:28.551Z,70.16
2022-12-15T09:18:58.424Z,70.85
2022-12-15T09:21:32.505Z,70.77
2022-12-15T09:24:02.102Z,70.65
2022-12-15T09:26:32.303Z,70.23
2022-12-15T09:29:02.387Z,70.15
2022-12-15T09:31:32.609Z,69.96
2022-12-15T09:34:01.877Z,71.28
2022-12-15T09:36:30.948Z,69.75
2022-12-15T09:38:58.958Z,71.05
2022-12-15T09:41:28.539Z,69.47
2022-12-15T09:43:59.640Z,69.51
2022-12-15T09:46:39.545Z,69.78
2022-12-15T09:49:14.777Z,70.03
2022-12-15T09:51:49.050Z,69.32
2022-12-15T09:54:16.832Z,68.43
2022-12-15T09:56:51.035Z,67.95
2022-12-15T09:59:30.629Z,71.41
2022-12-15T10:02:21.320Z,70.84
2022-12-15T10:04:57.024Z,69.60
2022-12-15T10:07:31.033Z,68.23
2022-12-15T10:09:59.034Z,67.45
2022-12-15T10:12:34.273Z,67.20
2022-12-15T10:15:14.623Z,66.43
2022-12-15T10:17:50.334Z,66.47
2022-12-15T10:20:20.635Z,66.82
2022-12-15T10:25:36.897Z,67.40
2022-12-15T10:28:30.108Z,67.70
2022-12-15T10:31:02.336Z,66.32
2022-12-15T10:33:35.812Z,67.08
2022-12-15T10:36:08.757Z,67.08
2022-12-15T10:38:38.578Z,67.48
2022-12-15T10:41:08.399Z,66.55
2022-12-15T10:43:38.388Z,68.85
2022-12-15T10:46:14.572Z,67.32
2022-12-15T10:48:48.664Z,69.04
2022-12-15T10:51:20.744Z,67.64
2022-12-15T10:53:50.916Z,67.06
2022-12-15T10:56:32.680Z,67.65
2022-12-15T10:59:03.658Z,67.89
2022-12-15T11:01:33.632Z,66.92
2022-12-15T11:04:02.824Z,66.95
2022-12-15T11:06:33.004Z,67.68
2022-12-15T11:09:10.123Z,66.62
2022-12-15T11:12:05.703Z,67.52
2022-12-15T11:14:44.622Z,67.34
2022-12-15T11:17:17.140Z,67.91
2022-12-15T11:19:58.105Z,66.18
2022-12-15T11:22:36.264Z,66.28
2022-12-15T11:25:10.386Z,67.24
2022-12-15T11:27:43.384Z,67.09
2022-12-15T11:30:15.044Z,66.95
2022-12-15T11:32:45.527Z,67.09
2022-12-15T11:35:23.435Z,66.49
2022-12-15T11:37:57.066Z,66.57
2022-12-15T11:40:40.110Z,66.23
2022-12-15T11:43:33.522Z,66.84
2022-12-15T11:46:22.909Z,66.30
2022-12-15T11:49:10.284Z,66.62
2022-12-15T11:51:45.135Z,65.89
2022-12-15T11:54:25.098Z,66.51
2022-12-15T11:57:00.606Z,66.33
2022-12-15T11:59:50.814Z,66.72
2022-12-15T12:02:36.621Z,67.66
2022-12-15T12:05:25.860Z,66.51
2022-12-15T12:08:03.246Z,66.78
2022-12-15T12:10:40.975Z,66.61
2022-12-15T12:13:16.309Z,66.58
2022-12-15T12:15:53.135Z,67.44
2022-12-15T12:18:25.963Z,67.62
2022-12-15T12:21:01.013Z,68.27
2022-12-15T12:23:35.481Z,66.57
2022-12-15T12:26:08.949Z,68.59
2022-12-15T12:28:46.737Z,68.15
2022-12-15T12:31:32.123Z,67.58
2022-12-15T12:34:09.829Z,68.46
2022-12-15T12:36:38.355Z,68.54
2022-12-15T12:39:10.493Z,68.97
2022-12-15T12:41:45.454Z,68.83
2022-12-15T12:44:23.694Z,68.71
2022-12-15T12:46:55.674Z,69.52
2022-12-15T12:49:29.499Z,69.28
2022-12-15T12:51:59.583Z,68.84
2022-12-15T12:54:44.657Z,70.53
2022-12-15T12:57:33.800Z,70.56
2022-12-15T13:00:06.092Z,70.80
2022-12-15T13:02:57.426Z,71.43
2022-12-15T13:05:29.487Z,70.12
2022-12-15T13:08:16.981Z,69.86
2022-12-15T13:10:47.909Z,70.50
2022-12-15T13:13:42.018Z,69.98
2022-12-15T13:16:13.647Z,71.19
2022-12-15T13:18:57.458Z,71.19
2022-12-15T13:21:53.408Z,70.04
2022-12-15T13:24:32.967Z,69.64
2022-12-15T13:27:15.211Z,70.59
2022-12-15T13:29:57.078Z,69.30
2022-12-15T13:32:35.152Z,70.55
2022-12-15T13:35:18.246Z,70.51
2022-12-15T13:37:50.482Z,70.91
2022-12-15T13:40:33.022Z,70.79
2022-12-15T13:43:10.883Z,71.36
2022-12-15T13:45:57.235Z,70.51
2022-12-15T13:48:35.283Z,71.46
2022-12-15T13:51:11.224Z,71.70
2022-12-15T13:53:43.340Z,73.11
2022-12-15T13:56:27.434Z,71.88
2022-12-15T13:59:02.064Z,70.90
2022-12-15T14:01:33.332Z,73.37
2022-12-15T14:04:06.626Z,74.34
2022-12-15T14:06:40.835Z,73.19
2022-12-15T14:09:14.956Z,72.00
2022-12-15T14:14:37.268Z,72.24
2022-12-15T14:17:08.560Z,72.24
2022-12-15T14:19:41.306Z,71.81
2022-12-15T14:25:15.602Z,72.28
2022-12-15T14:27:43.115Z,71.98
2022-12-15T14:30:22.292Z,72.89
2022-12-15T14:32:53.826Z,72.99
2022-12-15T14:35:27.913Z,72.88
2022-12-15T14:37:58.200Z,73.44
2022-12-15T14:40:28.920Z,73.29
2022-12-15T14:42:57.273Z,73.71
2022-12-15T14:45:28.199Z,73.41
2022-12-15T14:48:39.583Z,73.83
2022-12-15T14:50:48.458Z,73.85
2022-12-15T14:53:18.629Z,73.86
2022-12-15T14:55:46.331Z,73.17
2022-12-15T14:58:31.434Z,73.36
2022-12-15T15:01:01.205Z,73.71
2022-12-15T15:03:11.430Z,67.21
2022-12-15T15:03:14.223Z,72.66
2022-12-15T15:03:36.501Z,75.57
2022-12-15T15:06:08.050Z,73.98
2022-12-15T15:08:37.600Z,74.45
2022-12-15T15:11:22.135Z,74.18
2022-12-15T15:13:49.654Z,74.90
2022-12-15T15:16:19.883Z,74.28
2022-12-15T15:18:51.055Z,74.59
2022-12-15T15:21:22.902Z,74.56
2022-12-15T15:24:01.017Z,75.53
2022-12-15T15:26:29.470Z,75.29
2022-12-15T15:28:57.526Z,74.72
2022-12-15T15:31:40.480Z,74.89
2022-12-15T15:34:09.145Z,74.51
2022-12-15T15:36:39.392Z,75.35
2022-12-15T15:39:13.141Z,75.53
2022-12-15T15:41:40.553Z,75.52
2022-12-15T15:44:13.613Z,74.65
2022-12-15T15:46:47.337Z,75.39
2022-12-15T15:49:17.990Z,74.99
2022-12-15T15:51:45.733Z,75.41
2022-12-15T15:54:15.733Z,75.87
2022-12-15T15:56:43.182Z,75.75
2022-12-15T15:59:12.945Z,75.79
2022-12-15T16:01:42.160Z,76.75
2022-12-15T16:04:09.748Z,76.46
2022-12-15T16:06:39.788Z,76.04
2022-12-15T16:09:15.023Z,75.77
2022-12-15T16:11:42.438Z,75.74
2022-12-15T16:14:12.859Z,75.96
2022-12-15T16:16:41.762Z,76.92
2022-12-15T16:19:09.383Z,76.22
2022-12-15T16:21:37.383Z,77.53
2022-12-15T16:24:09.843Z,76.90
2022-12-15T16:26:38.937Z,76.52
2022-12-15T16:29:15.261Z,76.62
2022-12-15T16:31:46.027Z,77.11
2022-12-15T16:34:13.888Z,77.09
2022-12-15T16:36:41.770Z,77.24
2022-12-15T16:39:25.341Z,76.16
2022-12-15T16:41:54.253Z,76.85
2022-12-15T16:44:22.336Z,77.79
2022-12-15T16:46:51.360Z,76.91
2022-12-15T16:49:18.884Z,76.71
2022-12-15T16:51:48.782Z,76.81
2022-12-15T16:54:18.715Z,78.01
2022-12-15T16:56:46.440Z,77.22
2022-12-15T16:59:34.563Z,76.82
2022-12-15T17:02:25.934Z,77.37
2022-12-15T17:04:55.341Z,77.34
2022-12-15T17:07:23.614Z,77.28
2022-12-15T17:09:51.763Z,77.34
2022-12-15T17:12:19.938Z,76.42
2022-12-15T17:14:47.606Z,76.78
2022-12-15T17:17:18.939Z,77.12
2022-12-15T17:20:19.714Z,76.29
2022-12-15T17:22:34.598Z,77.11
2022-12-15T17:25:02.064Z,76.60
2022-12-15T17:27:30.605Z,76.58
2022-12-15T17:30:00.896Z,76.69
2022-12-15T17:32:29.625Z,77.35
2022-12-15T17:34:57.513Z,76.50
2022-12-15T17:37:27.019Z,76.55
2022-12-15T17:39:56.936Z,76.02
2022-12-15T17:42:24.333Z,76.52
2022-12-15T17:44:51.965Z,76.96
2022-12-15T17:47:19.466Z,76.86
2022-12-15T17:49:48.305Z,77.20
2022-12-15T17:52:27.112Z,77.26
2022-12-15T17:54:55.271Z,78.02
2022-12-15T17:57:23.091Z,76.88
2022-12-15T17:59:50.515Z,77.26
2022-12-15T18:02:18.344Z,77.14
2022-12-15T18:04:46.158Z,77.13
2022-12-15T18:07:19.262Z,76.96
2022-12-15T18:09:47.662Z,77.12
2022-12-15T18:12:19.304Z,76.87
2022-12-15T18:14:46.759Z,76.49
2022-12-15T18:17:14.272Z,76.94
2022-12-15T18:19:41.706Z,76.92
2022-12-15T18:22:14.287Z,76.21
2022-12-15T18:24:43.281Z,76.93
2022-12-15T18:27:21.981Z,77.30
2022-12-15T18:29:49.686Z,77.82
2022-12-15T18:32:18.033Z,77.73
2022-12-15T18:34:46.572Z,76.05
2022-12-15T18:37:16.933Z,76.62
2022-12-15T18:39:46.179Z,76.85
2022-12-15T18:42:16.066Z,77.04
2022-12-15T18:44:47.275Z,76.45
2022-12-15T18:47:17.805Z,77.58
2022-12-15T18:49:45.771Z,77.93
2022-12-15T18:52:18.164Z,77.98
2022-12-15T18:54:47.694Z,77.69
2022-12-15T18:57:27.962Z,79.08
2022-12-15T18:59:58.280Z,79.80
2022-12-15T19:02:26.019Z,78.56
2022-12-15T19:04:53.627Z,77.57
2022-12-15T19:07:21.146Z,77.67
2022-12-15T19:09:50.545Z,76.88
2022-12-15T19:12:18.479Z,76.17
2022-12-15T19:14:47.195Z,78.86
2022-12-15T19:17:34.121Z,78.36
2022-12-15T19:20:20.082Z,77.92
2022-12-15T19:22:49.384Z,78.05
2022-12-15T19:25:25.443Z,77.79
2022-12-15T19:27:58.487Z,77.46
2022-12-15T19:30:28.123Z,77.95
2022-12-15T19:32:56.183Z,76.74
2022-12-15T19:35:24.763Z,77.83
2022-12-15T19:37:55.052Z,78.12
2022-12-15T19:40:28.288Z,77.75
2022-12-15T19:42:56.011Z,78.60
2022-12-15T19:45:25.822Z,77.82
2022-12-15T19:47:53.418Z,77.45
2022-12-15T19:50:22.637Z,77.26
2022-12-15T19:52:53.273Z,76.92
2022-12-15T19:55:26.376Z,77.82
2022-12-15T19:57:53.832Z,78.09
2022-12-15T20:00:23.136Z,78.69
2022-12-15T20:02:51.692Z,78.16
2022-12-15T20:05:20.237Z,76.81
2022-12-15T20:07:49.582Z,76.54
2022-12-15T20:10:25.858Z,76.65
2022-12-15T20:12:58.673Z,77.01
2022-12-15T20:15:29.038Z,76.73
2022-12-15T20:17:57.234Z,76.19
2022-12-15T20:20:27.406Z,76.45
2022-12-15T20:22:59.699Z,78.55
2022-12-15T20:25:30.168Z,76.83
2022-12-15T20:28:00.854Z,76.76
2022-12-15T20:30:35.456Z,76.33
2022-12-15T20:33:05.363Z,76.84
2022-12-15T20:35:38.628Z,76.81
2022-12-15T20:38:19.237Z,76.00
2022-12-15T20:40:46.824Z,76.64
2022-12-15T20:43:17.651Z,76.96
2022-12-15T20:46:04.014Z,76.27
2022-12-15T20:48:39.823Z,76.29
2022-12-15T20:51:10.058Z,76.06
2022-12-15T20:53:38.839Z,77.29
2022-12-15T20:56:07.417Z,76.96
2022-12-15T20:58:39.222Z,77.71
2022-12-15T21:01:18.885Z,77.67
2022-12-15T21:03:47.562Z,78.62
2022-12-15T21:06:15.646Z,77.72
2022-12-15T21:08:43.350Z,78.49
2022-12-15T21:11:23.551Z,77.86
2022-12-15T21:13:58.927Z,79.65
2022-12-15T21:16:29.093Z,79.19
2022-12-15T21:19:19.134Z,77.67
2022-12-15T21:21:48.054Z,78.44
2022-12-15T21:24:18.254Z,80.23
2022-12-15T21:26:50.921Z,87.49
2022-12-15T21:29:23.731Z,83.48
2022-12-15T21:31:54.503Z,85.76
2022-12-15T21:34:24.737Z,86.94
2022-12-15T21:36:55.284Z,84.74
2022-12-15T21:39:33.831Z,82.03
2022-12-15T21:42:05.306Z,76.26
2022-12-15T21:44:34.162Z,81.13
2022-12-15T21:47:01.854Z,80.51
2022-12-15T21:49:28.349Z,79.08
2022-12-15T21:51:58.244Z,76.82
2022-12-15T21:54:31.168Z,77.06
2022-12-15T21:56:59.503Z,75.30
2022-12-15T21:59:29.367Z,74.09
2022-12-15T22:01:58.522Z,75.70
2022-12-15T22:04:29.565Z,75.74
2022-12-15T22:06:57.064Z,74.87
2022-12-15T22:09:24.587Z,77.25
2022-12-15T22:11:54.586Z,77.56
2022-12-15T22:14:26.799Z,76.96
2022-12-15T22:16:56.482Z,76.52
2022-12-15T22:19:25.724Z,75.86
2022-12-15T22:21:53.733Z,75.67
2022-12-15T22:24:21.524Z,75.87
2022-12-15T22:26:49.235Z,76.40
2022-12-15T22:29:19.176Z,78.33
2022-12-15T22:31:47.245Z,76.93
2022-12-15T22:34:17.218Z,76.24
2022-12-15T22:36:48.561Z,76.36
2022-12-15T22:39:16.173Z,76.56
2022-12-15T22:41:47.892Z,76.54
2022-12-15T22:44:18.097Z,76.61
2022-12-15T22:46:45.923Z,77.03
2022-12-15T22:49:16.363Z,77.39
2022-12-15T22:51:43.788Z,75.83
2022-12-15T22:54:18.898Z,77.09
2022-12-15T22:56:48.342Z,76.63
2022-12-15T22:59:22.986Z,77.03
2022-12-15T23:01:50.579Z,77.33
2022-12-15T23:04:18.233Z,75.88
2022-12-15T23:06:47.203Z,77.37
2022-12-15T23:09:15.397Z,76.10
2022-12-15T23:11:44.116Z,77.26
2022-12-15T23:14:15.282Z,77.02
2022-12-15T23:16:42.748Z,76.65
2022-12-15T23:19:23.489Z,76.10
2022-12-15T23:21:54.341Z,76.29
2022-12-15T23:24:22.866Z,76.99
2022-12-15T23:26:51.679Z,77.12
2022-12-15T23:29:19.385Z,76.30
2022-12-15T23:31:47.364Z,75.67
2022-12-15T23:34:17.945Z,77.99
2022-12-15T23:36:45.448Z,77.55
2022-12-15T23:39:15.485Z,77.34
2022-12-15T23:41:43.015Z,74.94
2022-12-15T23:44:12.670Z,76.89
2022-12-15T23:46:40.122Z,76.70
2022-12-15T23:49:10.138Z,76.20
2022-12-15T23:51:37.565Z,77.54
2022-12-15T23:54:05.262Z,76.63
2022-12-15T23:56:32.849Z,76.20
2022-12-15T23:59:00.664Z,78.58
